createdAt,value
2022-10-31T00:01:22.108Z,97363.00
2022-10-31T00:03:48.944Z,97359.31
2022-10-31T00:06:15.933Z,97359.16
2022-10-31T00:08:42.258Z,97353.13
2022-10-31T00:11:11.587Z,97357.69
2022-10-31T00:13:38.305Z,97364.00
2022-10-31T00:16:04.900Z,97360.66
2022-10-31T00:18:31.498Z,97363.69
2022-10-31T00:21:01.428Z,97354.50
2022-10-31T00:23:27.816Z,97358.47
2022-10-31T00:25:54.203Z,97358.19
2022-10-31T00:28:20.640Z,97358.06
2022-10-31T00:30:46.995Z,97351.47
2022-10-31T00:33:13.336Z,97358.38
2022-10-31T00:35:50.251Z,97366.69
2022-10-31T00:38:16.572Z,97363.97
2022-10-31T00:40:42.940Z,97367.88
2022-10-31T00:43:09.504Z,97366.41
2022-10-31T00:45:35.935Z,97363.06
2022-10-31T00:48:02.607Z,97362.66
2022-10-31T00:50:29.264Z,97363.97
2022-10-31T00:52:55.646Z,97359.84
2022-10-31T00:55:22.026Z,97360.97
2022-10-31T00:57:48.802Z,97359.34
2022-10-31T01:00:15.540Z,97363.66
2022-10-31T01:02:42.080Z,97362.00
2022-10-31T01:05:08.960Z,97359.19
2022-10-31T01:07:38.850Z,97368.59
2022-10-31T01:10:05.859Z,97359.72
2022-10-31T01:12:37.124Z,97362.72
2022-10-31T01:15:03.774Z,97355.34
2022-10-31T01:17:30.151Z,97360.38
2022-10-31T01:19:56.481Z,97366.06
2022-10-31T01:22:22.843Z,97359.25
2022-10-31T01:24:49.231Z,97364.13
2022-10-31T01:27:15.588Z,97359.38
2022-10-31T01:29:41.887Z,97369.50
2022-10-31T01:32:08.245Z,97358.94
2022-10-31T01:34:34.588Z,97361.47
2022-10-31T01:37:01.426Z,97370.78
2022-10-31T01:39:27.950Z,97356.88
2022-10-31T01:41:55.036Z,97357.78
2022-10-31T01:44:21.404Z,97362.41
2022-10-31T01:47:09.799Z,97358.44
2022-10-31T01:49:38.490Z,97357.97
2022-10-31T01:52:06.936Z,97355.22
2022-10-31T01:54:38.240Z,97359.69
2022-10-31T01:57:06.489Z,97359.19
2022-10-31T01:59:34.143Z,97366.72
2022-10-31T02:02:00.702Z,97356.03
2022-10-31T02:04:27.210Z,97363.00
2022-10-31T02:07:06.265Z,97360.91
2022-10-31T02:09:33.101Z,97368.81
2022-10-31T02:12:00.318Z,97361.19
2022-10-31T02:14:28.711Z,97361.34
2022-10-31T02:16:55.399Z,97361.47
2022-10-31T02:19:27.724Z,97366.53
2022-10-31T02:22:07.523Z,97367.41
2022-10-31T02:24:54.088Z,97367.78
2022-10-31T02:27:39.406Z,97365.84
2022-10-31T02:30:06.546Z,97364.78
2022-10-31T02:32:39.064Z,97362.69
2022-10-31T02:35:25.631Z,97360.84
2022-10-31T02:38:11.958Z,97363.25
2022-10-31T02:40:46.023Z,97361.34
2022-10-31T02:43:38.548Z,97359.31
2022-10-31T02:46:04.861Z,97360.91
2022-10-31T02:48:33.759Z,97364.72
2022-10-31T02:51:01.360Z,97362.78
2022-10-31T02:53:27.846Z,97366.97
2022-10-31T02:56:05.281Z,97365.69
2022-10-31T02:58:35.320Z,97363.94
2022-10-31T03:01:16.872Z,97360.63
2022-10-31T03:03:49.221Z,97365.81
2022-10-31T03:06:21.502Z,97371.06
2022-10-31T03:09:01.907Z,97366.34
2022-10-31T03:11:44.996Z,97366.63
2022-10-31T03:14:15.968Z,97371.56
2022-10-31T03:16:43.305Z,97368.91
2022-10-31T03:19:11.869Z,97366.66
2022-10-31T03:21:44.671Z,97369.94
2022-10-31T03:24:12.565Z,97368.72
2022-10-31T03:26:40.346Z,97377.69
2022-10-31T03:29:07.462Z,97369.34
2022-10-31T03:31:36.858Z,97370.69
2022-10-31T03:34:07.234Z,97375.38
2022-10-31T03:36:35.482Z,97373.66
2022-10-31T03:39:03.446Z,97372.53
2022-10-31T03:41:31.963Z,97376.19
2022-10-31T03:44:18.769Z,97372.38
2022-10-31T03:46:45.755Z,97376.91
2022-10-31T03:49:12.971Z,97373.72
2022-10-31T03:52:02.508Z,97374.09
2022-10-31T03:54:28.817Z,97373.28
2022-10-31T03:57:01.132Z,97374.91
2022-10-31T03:59:29.943Z,97382.78
2022-10-31T04:02:01.523Z,97374.91
2022-10-31T04:04:28.489Z,97368.31
2022-10-31T04:06:56.907Z,97376.72
2022-10-31T04:09:24.152Z,97373.28
2022-10-31T04:11:52.433Z,97373.72
2022-10-31T04:14:18.738Z,97372.53
2022-10-31T04:16:45.458Z,97369.25
2022-10-31T04:19:12.739Z,97365.78
2022-10-31T04:21:39.078Z,97363.59
2022-10-31T04:24:05.620Z,97362.59
2022-10-31T04:26:31.966Z,97366.91
2022-10-31T04:28:58.320Z,97368.09
2022-10-31T04:31:24.687Z,97369.75
2022-10-31T04:33:51.076Z,97364.91
2022-10-31T04:36:18.466Z,97370.94
2022-10-31T04:38:44.777Z,97366.25
2022-10-31T04:41:11.148Z,97364.91
2022-10-31T04:43:37.542Z,97371.00
2022-10-31T04:46:03.860Z,97368.00
2022-10-31T04:48:30.409Z,97369.09
2022-10-31T04:51:00.622Z,97368.72
2022-10-31T04:53:27.095Z,97371.84
2022-10-31T04:55:53.449Z,97359.44
2022-10-31T04:58:19.803Z,97366.69
2022-10-31T05:00:46.255Z,97370.75
2022-10-31T05:03:12.693Z,97372.19
2022-10-31T05:05:39.045Z,97365.84
2022-10-31T05:08:05.962Z,97365.78
2022-10-31T05:10:38.320Z,97370.53
2022-10-31T05:13:05.862Z,97379.44
2022-10-31T05:15:32.538Z,97373.38
2022-10-31T05:17:59.362Z,97371.84
2022-10-31T05:20:27.214Z,97373.47
2022-10-31T05:22:54.454Z,97377.34
2022-10-31T05:25:22.268Z,97371.31
2022-10-31T05:27:49.641Z,97372.66
2022-10-31T05:30:17.982Z,97374.34
2022-10-31T05:32:45.581Z,97372.13
2022-10-31T05:35:21.630Z,97369.28
2022-10-31T05:37:48.026Z,97377.28
2022-10-31T05:40:16.918Z,97372.84
2022-10-31T05:42:43.873Z,97371.97
2022-10-31T05:45:11.720Z,97369.09
2022-10-31T05:47:38.215Z,97373.81
2022-10-31T05:50:05.040Z,97376.81
2022-10-31T05:52:31.469Z,97376.69
2022-10-31T05:54:57.779Z,97381.06
2022-10-31T05:57:25.122Z,97383.97
2022-10-31T05:59:55.052Z,97376.34
2022-10-31T06:02:21.850Z,97388.00
2022-10-31T06:04:48.198Z,97382.22
2022-10-31T06:07:14.698Z,97383.75
2022-10-31T06:09:41.116Z,97389.13
2022-10-31T06:12:08.530Z,97395.84
2022-10-31T06:14:34.864Z,97391.88
2022-10-31T06:17:01.417Z,97389.09
2022-10-31T06:19:27.728Z,97394.19
2022-10-31T06:21:54.256Z,97390.75
2022-10-31T06:24:20.648Z,97391.00
2022-10-31T06:26:48.131Z,97393.03
2022-10-31T06:29:14.506Z,97394.69
2022-10-31T06:31:40.871Z,97397.16
2022-10-31T06:34:07.299Z,97392.97
2022-10-31T06:36:35.714Z,97396.81
2022-10-31T06:39:02.149Z,97382.44
2022-10-31T06:41:29.586Z,97379.63
2022-10-31T06:43:55.919Z,97383.22
2022-10-31T06:46:22.362Z,97381.47
2022-10-31T06:48:48.723Z,97379.78
2022-10-31T06:51:15.093Z,97381.38
2022-10-31T06:53:41.468Z,97387.13
2022-10-31T06:56:07.948Z,97390.97
2022-10-31T06:58:37.433Z,97388.03
2022-10-31T07:01:03.909Z,97392.03
2022-10-31T07:03:31.447Z,97388.06
2022-10-31T07:05:58.282Z,97391.69
2022-10-31T07:08:24.772Z,97386.03
2022-10-31T07:10:55.217Z,97390.88
2022-10-31T07:13:26.569Z,97388.81
2022-10-31T07:15:59.823Z,97391.38
2022-10-31T07:18:28.247Z,97380.53
2022-10-31T07:20:55.828Z,97388.47
2022-10-31T07:23:22.718Z,97383.06
2022-10-31T07:25:49.055Z,97391.34
2022-10-31T07:28:15.422Z,97392.69
2022-10-31T07:30:41.830Z,97376.94
2022-10-31T07:33:10.196Z,97388.47
2022-10-31T07:35:36.700Z,97382.69
2022-10-31T07:38:11.101Z,97390.00
2022-10-31T07:40:37.792Z,97385.91
2022-10-31T07:43:04.184Z,97381.97
2022-10-31T07:45:33.063Z,97379.03
2022-10-31T07:47:59.860Z,97373.78
2022-10-31T07:50:27.763Z,97371.25
2022-10-31T07:53:07.579Z,97380.06
2022-10-31T07:55:36.711Z,97375.63
2022-10-31T07:58:04.619Z,97361.53
2022-10-31T08:00:33.088Z,97365.31
2022-10-31T08:03:04.205Z,97365.13
2022-10-31T08:05:31.309Z,97368.09
2022-10-31T08:07:59.025Z,97366.09
2022-10-31T08:10:26.520Z,97360.41
2022-10-31T08:12:56.612Z,97359.09
2022-10-31T08:15:23.183Z,97368.00
2022-10-31T08:17:49.639Z,97363.72
2022-10-31T08:20:20.094Z,97364.41
2022-10-31T08:23:03.664Z,97363.22
2022-10-31T08:25:33.893Z,97364.44
2022-10-31T08:28:04.436Z,97359.75
2022-10-31T08:30:31.726Z,97367.94
2022-10-31T08:33:02.536Z,97365.38
2022-10-31T08:35:35.985Z,97361.16
2022-10-31T08:38:03.072Z,97359.75
2022-10-31T08:40:31.297Z,97351.78
2022-10-31T08:42:58.592Z,97341.38
2022-10-31T08:45:25.168Z,97332.94
2022-10-31T08:47:51.819Z,97334.84
2022-10-31T08:50:18.540Z,97327.81
2022-10-31T08:53:04.062Z,97326.03
2022-10-31T08:55:31.047Z,97320.56
2022-10-31T08:57:58.516Z,97316.91
2022-10-31T09:00:25.343Z,97327.34
2022-10-31T09:03:02.488Z,97320.84
2022-10-31T09:05:29.240Z,97319.59
2022-10-31T09:07:59.626Z,97312.69
2022-10-31T09:10:27.704Z,97317.31
2022-10-31T09:13:01.651Z,97309.53
2022-10-31T09:15:28.834Z,97310.78
2022-10-31T09:17:55.543Z,97311.22
2022-10-31T09:20:21.958Z,97310.09
2022-10-31T09:22:48.537Z,97304.16
2022-10-31T09:25:15.200Z,97302.06
2022-10-31T09:27:41.729Z,97297.53
2022-10-31T09:30:08.373Z,97306.88
2022-10-31T09:32:34.714Z,97292.31
2022-10-31T09:35:01.167Z,97293.78
2022-10-31T09:37:27.658Z,97287.88
2022-10-31T09:39:54.114Z,97288.66
2022-10-31T09:42:30.059Z,97287.22
2022-10-31T09:45:03.335Z,97286.00
2022-10-31T09:47:41.813Z,97286.97
2022-10-31T09:50:09.019Z,97290.88
2022-10-31T09:52:41.627Z,97300.66
2022-10-31T09:55:27.965Z,97293.31
2022-10-31T09:57:54.754Z,97292.06
2022-10-31T10:00:22.201Z,97289.72
2022-10-31T10:03:01.159Z,97286.59
2022-10-31T10:05:38.005Z,97287.63
2022-10-31T10:08:04.547Z,97285.97
2022-10-31T10:10:40.278Z,97280.94
2022-10-31T10:13:30.220Z,97275.59
2022-10-31T10:16:15.138Z,97272.78
2022-10-31T10:18:55.661Z,97270.28
2022-10-31T10:21:30.889Z,97274.81
2022-10-31T10:24:04.169Z,97275.59
2022-10-31T10:26:37.203Z,97277.03
2022-10-31T10:29:12.373Z,97274.47
2022-10-31T10:31:42.011Z,97272.50
2022-10-31T10:34:13.834Z,97269.50
2022-10-31T10:36:45.541Z,97265.06
2022-10-31T10:39:17.969Z,97263.69
2022-10-31T10:41:46.705Z,97254.50
2022-10-31T10:44:13.146Z,97262.06
2022-10-31T10:47:02.988Z,97245.28
2022-10-31T10:49:29.305Z,97245.06
2022-10-31T10:54:45.551Z,97244.28
2022-10-31T10:57:33.742Z,97244.84
2022-10-31T11:00:02.098Z,97232.66
2022-10-31T11:02:33.699Z,97231.28
2022-10-31T11:05:01.735Z,97236.25
2022-10-31T11:07:38.653Z,97227.88
2022-10-31T11:10:06.113Z,97223.59
2022-10-31T11:12:34.533Z,97227.31
2022-10-31T11:15:06.660Z,97218.88
2022-10-31T11:17:34.837Z,97213.03
2022-10-31T11:20:19.041Z,97212.81
2022-10-31T11:22:46.687Z,97211.06
2022-10-31T11:25:19.950Z,97204.31
2022-10-31T11:27:59.796Z,97194.53
2022-10-31T11:30:26.214Z,97193.63
2022-10-31T11:32:53.476Z,97189.00
2022-10-31T11:35:21.166Z,97183.31
2022-10-31T11:37:49.131Z,97178.25
2022-10-31T11:40:17.623Z,97173.88
2022-10-31T11:42:44.366Z,97172.72
2022-10-31T11:45:29.438Z,97169.91
2022-10-31T11:47:59.884Z,97163.50
2022-10-31T11:50:38.065Z,97158.75
2022-10-31T11:53:05.089Z,97159.09
2022-10-31T11:55:31.837Z,97156.22
2022-10-31T11:57:58.651Z,97158.88
2022-10-31T12:03:05.647Z,97150.66
2022-10-31T12:05:33.928Z,97144.50
2022-10-31T12:08:03.545Z,97147.16
2022-10-31T12:10:46.838Z,97141.47
2022-10-31T12:13:25.861Z,97139.59
2022-10-31T12:15:56.441Z,97125.31
2022-10-31T12:18:30.348Z,97125.28
2022-10-31T12:21:11.723Z,97121.56
2022-10-31T12:23:58.783Z,97127.78
2022-10-31T12:26:27.868Z,97121.63
2022-10-31T12:28:57.115Z,97113.72
2022-10-31T12:31:33.346Z,97124.66
2022-10-31T12:34:05.862Z,97107.13
2022-10-31T12:36:52.469Z,97112.44
2022-10-31T12:39:18.812Z,97110.00
2022-10-31T12:41:46.224Z,97109.53
2022-10-31T12:44:12.759Z,97109.22
2022-10-31T12:46:42.165Z,97102.09
2022-10-31T12:49:17.167Z,97095.91
2022-10-31T12:51:44.564Z,97101.94
2022-10-31T12:54:23.470Z,97098.72
2022-10-31T12:56:49.797Z,97096.22
2022-10-31T12:59:34.723Z,97088.34
2022-10-31T13:02:11.811Z,97082.72
2022-10-31T13:04:43.382Z,97082.75
2022-10-31T13:07:13.065Z,97079.03
2022-10-31T13:09:46.819Z,97080.50
2022-10-31T13:12:17.572Z,97074.75
2022-10-31T13:14:45.813Z,97068.94
2022-10-31T13:17:24.050Z,97076.13
2022-10-31T13:19:52.531Z,97057.31
2022-10-31T13:22:21.534Z,97068.97
2022-10-31T13:24:54.098Z,97064.78
2022-10-31T13:27:24.011Z,97058.13
2022-10-31T13:29:50.307Z,97057.91
2022-10-31T13:32:16.701Z,97057.34
2022-10-31T13:34:52.665Z,97053.06
2022-10-31T13:37:28.316Z,97053.19
2022-10-31T13:40:08.797Z,97058.19
2022-10-31T13:42:42.519Z,97049.88
2022-10-31T13:45:19.660Z,97035.41
2022-10-31T13:47:56.519Z,97042.16
2022-10-31T13:50:24.725Z,97033.81
2022-10-31T13:52:51.164Z,97034.63
2022-10-31T13:55:36.126Z,97042.97
2022-10-31T13:58:04.863Z,97040.09
2022-10-31T14:00:35.751Z,97039.59
2022-10-31T14:03:02.443Z,97034.94
2022-10-31T14:05:33.761Z,97030.91
2022-10-31T14:08:07.495Z,97034.72
2022-10-31T14:10:38.654Z,97034.84
2022-10-31T14:13:16.454Z,97031.72
2022-10-31T14:15:44.506Z,97027.31
2022-10-31T14:18:23.208Z,97028.81
2022-10-31T14:20:49.824Z,97025.88
2022-10-31T14:23:41.605Z,97025.34
2022-10-31T14:26:19.272Z,97021.25
2022-10-31T14:28:46.441Z,97016.59
2022-10-31T14:31:25.082Z,97015.91
2022-10-31T14:33:51.462Z,97017.66
2022-10-31T14:36:27.676Z,97011.97
2022-10-31T14:39:10.676Z,97017.91
2022-10-31T14:42:06.675Z,97012.22
2022-10-31T14:44:32.981Z,97021.25
2022-10-31T14:47:17.878Z,97015.88
2022-10-31T14:50:01.176Z,97020.47
2022-10-31T14:52:27.671Z,97004.91
2022-10-31T14:54:56.388Z,97012.22
2022-10-31T14:57:33.129Z,97003.28
2022-10-31T15:00:06.120Z,97005.75
2022-10-31T15:02:41.132Z,97002.38
2022-10-31T15:05:11.352Z,96999.19
2022-10-31T15:07:40.979Z,97007.16
2022-10-31T15:10:19.656Z,96999.25
2022-10-31T15:12:45.972Z,96998.88
2022-10-31T15:15:18.311Z,96990.00
2022-10-31T15:17:45.852Z,96981.78
2022-10-31T15:20:13.357Z,96979.16
2022-10-31T15:22:39.788Z,96984.47
2022-10-31T15:25:06.842Z,96980.41
2022-10-31T15:27:34.581Z,96978.78
2022-10-31T15:30:02.910Z,96983.09
2022-10-31T15:32:29.912Z,96983.91
2022-10-31T15:34:57.354Z,96983.00
2022-10-31T15:37:25.889Z,96981.25
2022-10-31T15:39:52.395Z,96985.38
2022-10-31T15:42:23.379Z,96973.94
2022-10-31T15:44:55.921Z,96968.91
2022-10-31T15:47:25.221Z,96969.94
2022-10-31T15:49:55.682Z,96974.50
2022-10-31T15:52:27.748Z,96965.75
2022-10-31T15:54:56.464Z,96968.09
2022-10-31T15:57:24.478Z,96964.13
2022-10-31T15:59:50.942Z,96959.63
2022-10-31T16:02:22.041Z,96962.66
2022-10-31T16:04:54.307Z,96962.47
2022-10-31T16:07:23.429Z,96967.19
2022-10-31T16:09:51.749Z,96956.81
2022-10-31T16:12:21.513Z,96956.00
2022-10-31T16:14:49.883Z,96955.59
2022-10-31T16:17:17.732Z,96957.69
2022-10-31T16:19:55.710Z,96955.91
2022-10-31T16:22:24.363Z,96955.53
2022-10-31T16:24:53.200Z,96970.00
2022-10-31T16:27:26.657Z,96957.34
2022-10-31T16:29:53.170Z,96946.97
2022-10-31T16:32:25.675Z,96966.34
2022-10-31T16:35:21.403Z,96965.34
2022-10-31T16:37:47.844Z,96965.56
2022-10-31T16:40:15.034Z,96980.25
2022-10-31T16:42:42.248Z,96978.00
2022-10-31T16:45:09.253Z,96989.75
2022-10-31T16:47:40.704Z,96981.16
2022-10-31T16:50:12.902Z,96981.41
2022-10-31T16:52:53.976Z,96978.78
2022-10-31T16:55:26.747Z,96975.53
2022-10-31T16:57:54.010Z,96974.53
2022-10-31T17:00:21.705Z,96979.63
2022-10-31T17:02:49.907Z,96980.38
2022-10-31T17:05:18.377Z,96979.88
2022-10-31T17:07:44.975Z,96980.31
2022-10-31T17:10:12.497Z,96974.66
2022-10-31T17:12:39.730Z,96960.22
2022-10-31T17:15:06.994Z,96966.75
2022-10-31T17:17:33.426Z,96956.16
2022-10-31T17:19:59.865Z,96958.78
2022-10-31T17:22:26.377Z,96963.69
2022-10-31T17:24:52.961Z,96969.75
2022-10-31T17:27:21.026Z,96972.34
2022-10-31T17:29:49.854Z,96978.94
2022-10-31T17:32:17.245Z,96984.63
2022-10-31T17:34:44.655Z,96985.13
2022-10-31T17:37:11.134Z,96984.09
2022-10-31T17:39:37.983Z,96978.66
2022-10-31T17:42:04.345Z,96974.19
2022-10-31T17:44:30.657Z,96982.22
2022-10-31T17:46:58.024Z,96990.31
2022-10-31T17:49:24.333Z,96988.19
2022-10-31T17:51:50.703Z,96971.25
2022-10-31T17:54:18.786Z,96965.59
2022-10-31T17:56:45.123Z,96965.41
2022-10-31T17:59:11.530Z,96963.53
2022-10-31T18:01:38.436Z,96965.56
2022-10-31T18:04:04.913Z,96947.19
2022-10-31T18:06:31.226Z,96963.91
2022-10-31T18:09:02.247Z,96967.94
2022-10-31T18:11:32.086Z,96969.72
2022-10-31T18:13:58.885Z,96968.41
2022-10-31T18:16:25.868Z,96957.50
2022-10-31T18:18:53.370Z,96958.25
2022-10-31T18:21:20.048Z,96956.19
2022-10-31T18:23:56.155Z,96953.72
2022-10-31T18:26:23.065Z,96956.22
2022-10-31T18:28:49.471Z,96960.16
2022-10-31T18:31:15.932Z,96960.63
2022-10-31T18:33:42.752Z,96962.22
2022-10-31T18:36:10.005Z,96960.97
2022-10-31T18:38:40.711Z,96948.47
2022-10-31T18:41:07.749Z,96958.78
2022-10-31T18:43:34.252Z,96949.50
2022-10-31T18:46:05.005Z,96944.91
2022-10-31T18:48:31.649Z,96948.09
2022-10-31T18:51:01.640Z,96945.13
2022-10-31T18:53:28.101Z,96946.34
2022-10-31T18:55:55.524Z,96946.75
2022-10-31T18:58:22.193Z,96944.38
2022-10-31T19:00:48.542Z,96938.84
2022-10-31T19:03:15.190Z,96943.88
2022-10-31T19:05:41.512Z,96945.81
2022-10-31T19:08:08.848Z,96951.41
2022-10-31T19:10:36.032Z,96937.81
2022-10-31T19:13:05.753Z,96932.41
2022-10-31T19:15:34.016Z,96937.50
2022-10-31T19:18:04.577Z,96931.66
2022-10-31T19:20:33.380Z,96931.53
2022-10-31T19:23:00.435Z,96931.88
2022-10-31T19:25:27.055Z,96944.78
2022-10-31T19:27:53.447Z,96928.13
2022-10-31T19:30:21.313Z,96932.88
2022-10-31T19:32:47.907Z,96937.91
2022-10-31T19:35:14.420Z,96938.75
2022-10-31T19:37:40.829Z,96934.00
2022-10-31T19:40:08.352Z,96936.53
2022-10-31T19:42:36.833Z,96934.56
2022-10-31T19:45:03.807Z,96926.09
2022-10-31T19:47:30.598Z,96922.38
2022-10-31T19:49:56.980Z,96928.28
2022-10-31T19:52:23.284Z,96918.84
2022-10-31T19:54:49.688Z,96924.03
2022-10-31T19:57:16.021Z,96918.03
2022-10-31T19:59:42.372Z,96912.41
2022-10-31T20:02:17.059Z,96921.94
2022-10-31T20:04:46.435Z,96915.78
2022-10-31T20:07:12.874Z,96922.13
2022-10-31T20:09:39.216Z,96921.22
2022-10-31T20:12:05.787Z,96927.19
2022-10-31T20:14:33.191Z,96927.03
2022-10-31T20:16:59.699Z,96929.38
2022-10-31T20:19:26.152Z,96931.19
2022-10-31T20:21:53.530Z,96930.53
2022-10-31T20:24:19.992Z,96927.78
2022-10-31T20:26:46.358Z,96925.03
2022-10-31T20:29:15.689Z,96928.50
2022-10-31T20:31:44.761Z,96929.66
2022-10-31T20:34:11.197Z,96932.38
2022-10-31T20:36:37.514Z,96939.03
2022-10-31T20:39:05.063Z,96936.56
2022-10-31T20:41:31.533Z,96929.97
2022-10-31T20:43:58.113Z,96930.91
2022-10-31T20:46:26.704Z,96933.38
2022-10-31T20:48:54.065Z,96928.00
2022-10-31T20:51:23.322Z,96921.34
2022-10-31T20:53:50.892Z,96923.69
2022-10-31T20:56:18.663Z,96922.84
2022-10-31T20:58:46.791Z,96922.97
2022-10-31T21:01:23.597Z,96934.38
2022-10-31T21:03:50.503Z,96924.66
2022-10-31T21:06:17.339Z,96936.88
2022-10-31T21:08:44.485Z,96937.41
2022-10-31T21:11:13.641Z,96929.25
2022-10-31T21:13:41.373Z,96930.56
2022-10-31T21:16:09.364Z,96933.38
2022-10-31T21:18:36.565Z,96931.09
2022-10-31T21:21:11.345Z,96934.50
2022-10-31T21:23:37.790Z,96932.03
2022-10-31T21:26:09.567Z,96936.81
2022-10-31T21:28:35.953Z,96928.78
2022-10-31T21:31:05.947Z,96930.75
2022-10-31T21:33:32.542Z,96933.69
2022-10-31T21:36:06.098Z,96922.31
2022-10-31T21:38:34.207Z,96930.44
2022-10-31T21:41:05.066Z,96930.19
2022-10-31T21:43:31.503Z,96926.75
2022-10-31T21:46:04.948Z,96923.72
2022-10-31T21:48:31.433Z,96925.34
2022-10-31T21:51:00.915Z,96919.22
2022-10-31T21:53:46.054Z,96920.53
2022-10-31T21:56:12.437Z,96909.28
2022-10-31T21:58:41.927Z,96914.38
2022-10-31T22:01:09.526Z,96906.19
2022-10-31T22:03:36.509Z,96913.25
2022-10-31T22:06:03.865Z,96904.03
2022-10-31T22:08:30.688Z,96902.34
2022-10-31T22:10:57.153Z,96907.25
2022-10-31T22:13:23.471Z,96909.59
2022-10-31T22:15:49.806Z,96899.56
2022-10-31T22:18:16.285Z,96895.00
2022-10-31T22:20:42.610Z,96895.69
2022-10-31T22:23:09.390Z,96887.31
2022-10-31T22:25:37.305Z,96888.59
2022-10-31T22:28:07.849Z,96883.56
2022-10-31T22:30:34.264Z,96887.00
2022-10-31T22:33:00.925Z,96878.84
2022-10-31T22:35:27.654Z,96877.31
2022-10-31T22:37:57.365Z,96875.53
2022-10-31T22:40:23.698Z,96877.19
2022-10-31T22:42:50.047Z,96868.44
2022-10-31T22:45:16.471Z,96874.84
2022-10-31T22:47:42.877Z,96869.22
2022-10-31T22:50:09.338Z,96865.66
2022-10-31T22:52:35.653Z,96868.75
2022-10-31T22:55:02.161Z,96864.81
2022-10-31T22:57:28.559Z,96865.66
2022-10-31T22:59:55.065Z,96873.56
2022-10-31T23:02:21.654Z,96866.69
2022-10-31T23:04:48.109Z,96874.81
2022-10-31T23:07:14.876Z,96870.34
2022-10-31T23:09:42.338Z,96862.53
2022-10-31T23:12:27.329Z,96862.03
2022-10-31T23:14:53.671Z,96865.16
2022-10-31T23:17:19.979Z,96864.34
2022-10-31T23:19:46.362Z,96862.03
2022-10-31T23:22:12.898Z,96858.94
2022-10-31T23:24:44.510Z,96863.94
2022-10-31T23:27:12.606Z,96863.91
2022-10-31T23:29:41.775Z,96861.91
2022-10-31T23:32:10.053Z,96878.91
2022-10-31T23:34:36.571Z,96880.19
2022-10-31T23:37:03.257Z,96881.19
2022-10-31T23:39:29.732Z,96883.75
2022-10-31T23:41:56.088Z,96882.16
2022-10-31T23:44:24.475Z,96876.03
2022-10-31T23:46:52.178Z,96888.69
2022-10-31T23:49:18.546Z,96883.44
2022-10-31T23:51:45.009Z,96872.31
2022-10-31T23:54:11.388Z,96885.50
2022-10-31T23:56:39.218Z,96887.75
2022-10-31T23:59:06.043Z,96883.50
